createdAt,value
2022-11-29T00:02:58.779Z,1.18
2022-11-29T00:06:08.421Z,1.13
2022-11-29T00:09:12.033Z,1.12
2022-11-29T00:12:14.189Z,1.05
2022-11-29T00:15:16.115Z,0.99
2022-11-29T00:18:18.320Z,0.99
2022-11-29T00:21:20.212Z,1.20
2022-11-29T00:24:22.755Z,1.22
2022-11-29T00:27:24.664Z,1.16
2022-11-29T00:30:27.791Z,1.07
2022-11-29T00:33:30.025Z,1.09
2022-11-29T00:36:32.928Z,1.05
2022-11-29T00:39:34.804Z,1.05
2022-11-29T00:42:36.992Z,1.02
2022-11-29T00:45:39.020Z,1.02
2022-11-29T00:48:41.251Z,0.99
2022-11-29T00:51:43.212Z,0.91
2022-11-29T00:54:45.849Z,0.86
2022-11-29T00:57:47.904Z,0.94
2022-11-29T01:00:50.829Z,0.94
2022-11-29T01:03:52.882Z,0.99
2022-11-29T01:06:55.068Z,1.02
2022-11-29T01:09:56.957Z,1.05
2022-11-29T01:12:59.153Z,1.12
2022-11-29T01:16:01.072Z,1.12
2022-11-29T01:19:03.920Z,1.09
2022-11-29T01:22:05.817Z,1.12
2022-11-29T01:25:08.685Z,1.15
2022-11-29T01:28:10.553Z,1.15
2022-11-29T01:31:14.879Z,1.09
2022-11-29T01:34:16.965Z,1.05
2022-11-29T01:37:19.140Z,1.02
2022-11-29T01:40:21.041Z,1.02
2022-11-29T01:43:23.375Z,0.95
2022-11-29T01:46:26.392Z,0.86
2022-11-29T01:49:48.526Z,0.91
2022-11-29T01:52:50.762Z,0.87
2022-11-29T01:55:56.127Z,0.97
2022-11-29T01:58:58.156Z,0.86
2022-11-29T02:02:05.089Z,0.87
2022-11-29T02:05:07.867Z,0.89
2022-11-29T02:08:11.238Z,0.90
2022-11-29T02:11:13.171Z,0.85
2022-11-29T02:14:18.488Z,0.85
2022-11-29T02:17:35.446Z,0.85
2022-11-29T02:20:59.388Z,0.83
2022-11-29T02:24:01.313Z,0.84
2022-11-29T02:27:09.205Z,0.83
2022-11-29T02:30:16.843Z,0.75
2022-11-29T02:33:27.989Z,0.74
2022-11-29T02:36:48.556Z,0.80
2022-11-29T02:40:13.708Z,0.73
2022-11-29T02:43:15.595Z,0.67
2022-11-29T02:46:17.781Z,0.70
2022-11-29T02:49:38.735Z,0.66
2022-11-29T02:52:56.836Z,0.69
2022-11-29T02:55:58.715Z,0.69
2022-11-29T02:59:03.984Z,0.63
2022-11-29T03:02:18.033Z,0.70
2022-11-29T03:05:20.304Z,0.65
2022-11-29T03:08:42.229Z,0.65
2022-11-29T03:11:50.743Z,0.65
2022-11-29T03:15:01.843Z,0.65
2022-11-29T03:18:16.785Z,0.69
2022-11-29T03:21:24.470Z,0.66
2022-11-29T03:24:31.536Z,0.65
2022-11-29T03:27:40.339Z,0.62
2022-11-29T03:30:47.056Z,0.61
2022-11-29T03:34:07.750Z,0.49
2022-11-29T03:37:16.077Z,0.63
2022-11-29T03:40:20.052Z,0.74
2022-11-29T03:43:26.861Z,0.78
2022-11-29T03:46:37.835Z,0.83
2022-11-29T03:49:42.983Z,0.84
2022-11-29T03:52:49.767Z,0.73
2022-11-29T03:55:57.316Z,0.93
2022-11-29T03:59:04.655Z,0.86
2022-11-29T04:02:30.307Z,0.94
2022-11-29T04:05:35.242Z,0.95
2022-11-29T04:08:56.686Z,0.90
2022-11-29T04:12:04.670Z,0.88
2022-11-29T04:15:29.856Z,0.94
2022-11-29T04:18:50.571Z,0.96
2022-11-29T04:22:11.021Z,0.86
2022-11-29T04:25:16.334Z,0.85
2022-11-29T04:28:21.353Z,0.89
2022-11-29T04:31:33.107Z,0.95
2022-11-29T04:34:42.099Z,0.93
2022-11-29T04:38:09.758Z,0.77
2022-11-29T04:41:50.298Z,0.88
2022-11-29T04:44:58.229Z,0.94
2022-11-29T04:48:17.307Z,0.86
2022-11-29T04:51:19.436Z,0.98
2022-11-29T04:54:30.529Z,0.88
2022-11-29T04:57:37.187Z,0.90
2022-11-29T05:00:50.084Z,0.87
2022-11-29T05:04:17.637Z,0.83
2022-11-29T05:07:31.987Z,0.80
2022-11-29T05:10:45.553Z,0.77
2022-11-29T05:14:06.257Z,0.69
2022-11-29T05:17:23.844Z,0.63
2022-11-29T05:20:34.926Z,0.51
2022-11-29T05:23:54.794Z,0.58
2022-11-29T05:27:06.942Z,0.61
2022-11-29T05:30:18.129Z,0.59
2022-11-29T05:33:37.729Z,0.65
2022-11-29T05:36:39.977Z,0.62
2022-11-29T05:39:42.028Z,0.58
2022-11-29T05:42:44.186Z,0.55
2022-11-29T05:45:49.033Z,0.46
2022-11-29T05:48:51.184Z,0.53
2022-11-29T05:51:58.516Z,0.53
2022-11-29T05:55:07.000Z,0.50
2022-11-29T05:58:19.848Z,0.53
2022-11-29T06:01:29.034Z,0.62
2022-11-29T06:04:48.247Z,0.47
2022-11-29T06:07:54.912Z,0.55
2022-11-29T06:11:00.851Z,0.36
2022-11-29T06:14:27.594Z,0.57
2022-11-29T06:17:41.966Z,0.65
2022-11-29T06:21:02.692Z,0.41
2022-11-29T06:24:26.151Z,0.32
2022-11-29T06:27:31.719Z,0.53
2022-11-29T06:30:55.348Z,0.50
2022-11-29T06:34:09.395Z,0.66
2022-11-29T06:37:27.745Z,0.62
2022-11-29T06:40:29.771Z,0.80
2022-11-29T06:43:32.111Z,0.85
2022-11-29T06:46:45.663Z,0.84
2022-11-29T06:49:50.597Z,0.86
2022-11-29T06:52:59.798Z,0.81
2022-11-29T06:56:02.034Z,0.86
2022-11-29T06:59:10.419Z,0.82
2022-11-29T07:02:31.743Z,0.82
2022-11-29T07:05:35.117Z,0.89
2022-11-29T07:08:37.332Z,0.88
2022-11-29T07:11:39.489Z,0.90
2022-11-29T07:14:41.763Z,0.74
2022-11-29T07:17:46.698Z,0.87
2022-11-29T07:20:58.868Z,1.04
2022-11-29T07:24:16.099Z,0.76
2022-11-29T07:27:27.917Z,1.05
2022-11-29T07:30:34.991Z,1.16
2022-11-29T07:33:43.933Z,1.19
2022-11-29T07:36:45.868Z,1.20
2022-11-29T07:39:54.070Z,1.25
2022-11-29T07:43:02.491Z,1.27
2022-11-29T07:46:05.052Z,1.17
2022-11-29T07:49:09.486Z,1.15
2022-11-29T07:52:13.055Z,1.17
2022-11-29T07:55:18.953Z,1.23
2022-11-29T07:58:21.485Z,1.30
2022-11-29T08:01:23.507Z,1.24
2022-11-29T08:04:25.752Z,1.13
2022-11-29T08:07:27.877Z,1.34
2022-11-29T08:10:30.695Z,1.37
2022-11-29T08:13:32.559Z,1.35
2022-11-29T08:16:35.604Z,1.29
2022-11-29T08:19:37.776Z,1.34
2022-11-29T08:22:40.226Z,1.35
2022-11-29T08:25:42.378Z,1.39
2022-11-29T08:28:44.824Z,1.51
2022-11-29T08:31:50.855Z,1.61
2022-11-29T08:34:53.880Z,1.60
2022-11-29T08:37:55.861Z,1.72
2022-11-29T08:41:02.393Z,1.77
2022-11-29T08:44:04.876Z,1.64
2022-11-29T08:47:26.244Z,1.59
2022-11-29T08:50:28.212Z,1.60
2022-11-29T08:53:42.755Z,1.47
2022-11-29T09:00:07.200Z,1.66
2022-11-29T09:03:29.421Z,1.64
2022-11-29T09:06:38.098Z,1.61
2022-11-29T09:09:40.000Z,1.55
2022-11-29T09:12:44.197Z,1.31
2022-11-29T09:15:46.258Z,1.57
2022-11-29T09:18:52.740Z,1.38
2022-11-29T09:21:54.650Z,1.40
2022-11-29T09:24:57.260Z,1.73
2022-11-29T09:28:02.766Z,1.74
2022-11-29T09:31:06.057Z,2.01
2022-11-29T09:34:07.995Z,2.30
2022-11-29T09:37:10.178Z,2.60
2022-11-29T09:40:17.779Z,2.59
2022-11-29T09:43:32.076Z,2.67
2022-11-29T09:46:50.502Z,2.48
2022-11-29T09:49:55.422Z,2.69
2022-11-29T09:52:57.380Z,2.56
2022-11-29T09:56:29.245Z,2.59
2022-11-29T09:59:43.535Z,2.89
2022-11-29T10:03:03.212Z,3.06
2022-11-29T10:06:11.185Z,3.06
2022-11-29T10:09:33.947Z,3.07
2022-11-29T10:12:51.642Z,3.09
2022-11-29T10:15:54.945Z,3.13
2022-11-29T10:19:03.764Z,3.05
2022-11-29T10:22:07.453Z,3.04
2022-11-29T10:25:16.824Z,2.95
2022-11-29T10:28:20.841Z,3.09
2022-11-29T10:31:33.196Z,2.98
2022-11-29T10:34:35.266Z,3.18
2022-11-29T10:37:38.548Z,2.92
2022-11-29T10:40:42.861Z,3.01
2022-11-29T10:43:45.112Z,2.84
2022-11-29T10:46:47.123Z,2.78
2022-11-29T10:49:49.228Z,2.74
2022-11-29T10:52:54.635Z,2.67
2022-11-29T10:56:01.204Z,2.84
2022-11-29T10:59:07.885Z,2.87
2022-11-29T11:02:19.724Z,2.67
2022-11-29T11:05:26.334Z,2.76
2022-11-29T11:08:29.657Z,2.89
2022-11-29T11:11:32.954Z,2.99
2022-11-29T11:14:39.590Z,2.60
2022-11-29T11:17:54.143Z,2.95
2022-11-29T11:20:58.005Z,3.07
2022-11-29T11:24:02.891Z,3.11
2022-11-29T11:27:05.137Z,3.02
2022-11-29T11:30:27.548Z,2.92
2022-11-29T11:33:34.098Z,3.14
2022-11-29T11:36:36.046Z,3.17
2022-11-29T11:39:38.332Z,3.27
2022-11-29T11:42:42.165Z,3.28
2022-11-29T11:45:51.164Z,3.18
2022-11-29T11:48:54.082Z,3.17
2022-11-29T11:51:57.549Z,3.10
2022-11-29T11:55:05.767Z,3.14
2022-11-29T11:58:13.789Z,3.01
2022-11-29T12:01:35.937Z,3.12
2022-11-29T12:04:38.565Z,2.98
2022-11-29T12:08:07.230Z,2.78
2022-11-29T12:11:07.675Z,2.90
2022-11-29T12:14:18.076Z,3.09
2022-11-29T12:17:25.235Z,3.17
2022-11-29T12:20:46.682Z,3.14
2022-11-29T12:23:54.771Z,3.01
2022-11-29T12:27:00.902Z,3.18
2022-11-29T12:30:06.228Z,3.20
2022-11-29T12:33:15.292Z,3.38
2022-11-29T12:36:37.981Z,3.42
2022-11-29T12:39:46.299Z,3.41
2022-11-29T12:42:57.162Z,3.14
2022-11-29T12:46:06.766Z,3.37
2022-11-29T12:49:27.997Z,3.41
2022-11-29T12:52:37.365Z,3.43
2022-11-29T12:55:56.006Z,3.43
2022-11-29T12:59:16.981Z,3.45
2022-11-29T13:02:32.185Z,3.30
2022-11-29T13:05:53.161Z,3.51
2022-11-29T13:09:20.312Z,3.25
2022-11-29T13:12:35.045Z,3.37
2022-11-29T13:15:45.434Z,3.47
2022-11-29T13:18:55.563Z,3.31
2022-11-29T13:22:01.078Z,3.63
2022-11-29T13:25:14.764Z,3.57
2022-11-29T13:28:28.193Z,3.49
2022-11-29T13:31:31.036Z,3.56
2022-11-29T13:34:42.495Z,3.58
2022-11-29T13:38:03.364Z,3.60
2022-11-29T13:41:16.122Z,3.55
2022-11-29T13:44:38.688Z,3.51
2022-11-29T13:47:48.050Z,3.46
2022-11-29T13:50:49.948Z,3.44
2022-11-29T13:53:53.267Z,3.28
2022-11-29T13:57:08.544Z,3.27
2022-11-29T14:00:29.925Z,3.33
2022-11-29T14:03:41.812Z,3.31
2022-11-29T14:06:44.238Z,3.13
2022-11-29T14:09:59.451Z,3.24
2022-11-29T14:13:01.906Z,3.17
2022-11-29T14:16:08.417Z,3.07
2022-11-29T14:19:21.084Z,3.07
2022-11-29T14:22:23.343Z,3.17
2022-11-29T14:25:50.401Z,3.18
2022-11-29T14:28:48.230Z,3.18
2022-11-29T14:31:51.365Z,3.08
2022-11-29T14:34:56.557Z,3.13
2022-11-29T14:38:19.245Z,3.16
2022-11-29T14:41:32.191Z,2.98
2022-11-29T14:44:42.830Z,3.00
2022-11-29T14:47:48.822Z,3.01
2022-11-29T14:51:06.869Z,2.86
2022-11-29T14:54:18.959Z,2.99
2022-11-29T14:57:39.612Z,2.91
2022-11-29T15:00:47.756Z,2.88
2022-11-29T15:03:50.051Z,2.83
2022-11-29T15:06:55.614Z,2.84
2022-11-29T15:10:03.184Z,2.94
2022-11-29T15:13:06.932Z,2.92
2022-11-29T15:16:27.746Z,2.99
2022-11-29T15:19:48.817Z,2.96
2022-11-29T15:22:59.586Z,3.02
2022-11-29T15:26:01.813Z,2.99
2022-11-29T15:29:14.499Z,2.86
2022-11-29T15:32:21.358Z,2.91
2022-11-29T15:35:23.742Z,2.88
2022-11-29T15:38:26.136Z,2.79
2022-11-29T15:41:32.282Z,2.77
2022-11-29T15:44:34.626Z,2.74
2022-11-29T15:47:36.553Z,2.74
2022-11-29T15:50:39.794Z,2.68
2022-11-29T15:54:11.615Z,2.59
2022-11-29T15:57:20.350Z,2.49
2022-11-29T16:00:27.375Z,2.43
2022-11-29T16:03:33.057Z,2.42
2022-11-29T16:06:40.642Z,2.37
2022-11-29T16:09:44.378Z,2.54
2022-11-29T16:12:53.553Z,2.52
2022-11-29T16:16:19.967Z,2.52
2022-11-29T16:19:24.900Z,2.59
2022-11-29T16:22:27.100Z,2.53
2022-11-29T16:25:33.283Z,2.52
2022-11-29T16:28:42.356Z,2.48
2022-11-29T16:31:44.486Z,2.44
2022-11-29T16:34:47.093Z,2.44
2022-11-29T16:37:49.204Z,2.45
2022-11-29T16:41:06.174Z,2.45
2022-11-29T16:44:33.852Z,2.46
2022-11-29T16:47:46.852Z,2.51
2022-11-29T16:51:15.080Z,2.45
2022-11-29T16:54:23.505Z,2.46
2022-11-29T16:57:26.348Z,2.46
2022-11-29T17:00:31.632Z,2.43
2022-11-29T17:03:34.460Z,2.37
2022-11-29T17:06:36.884Z,2.40
2022-11-29T17:09:38.940Z,2.42
2022-11-29T17:12:47.665Z,2.48
2022-11-29T17:15:50.046Z,2.40
2022-11-29T17:18:55.299Z,2.47
2022-11-29T17:21:57.419Z,2.50
2022-11-29T17:24:59.621Z,2.47
2022-11-29T17:28:01.604Z,2.50
2022-11-29T17:31:11.021Z,2.53
2022-11-29T17:34:13.283Z,2.58
2022-11-29T17:37:15.472Z,2.58
2022-11-29T17:40:17.398Z,2.61
2022-11-29T17:43:19.593Z,2.67
2022-11-29T17:46:22.995Z,2.67
2022-11-29T17:49:25.104Z,2.75
2022-11-29T17:52:27.143Z,2.68
2022-11-29T17:55:29.743Z,2.71
2022-11-29T17:58:32.746Z,2.76
2022-11-29T18:01:36.077Z,2.71
2022-11-29T18:04:41.907Z,2.70
2022-11-29T18:07:59.288Z,2.67
2022-11-29T18:11:07.965Z,2.69
2022-11-29T18:14:10.404Z,2.73
2022-11-29T18:17:12.814Z,2.80
2022-11-29T18:20:14.958Z,2.83
2022-11-29T18:23:17.141Z,2.78
2022-11-29T18:26:20.633Z,2.76
2022-11-29T18:29:23.229Z,2.79
2022-11-29T18:32:25.644Z,2.74
2022-11-29T18:35:28.059Z,2.83
2022-11-29T18:38:29.918Z,2.96
2022-11-29T18:41:32.548Z,2.91
2022-11-29T18:44:34.482Z,2.91
2022-11-29T18:47:36.673Z,2.94
2022-11-29T18:50:38.614Z,2.92
2022-11-29T18:53:41.717Z,2.92
2022-11-29T18:56:45.685Z,3.04
2022-11-29T18:59:47.921Z,3.00
2022-11-29T19:02:49.851Z,3.05
2022-11-29T19:05:52.871Z,2.92
2022-11-29T19:08:54.933Z,2.92
2022-11-29T19:11:57.488Z,3.08
2022-11-29T19:14:59.888Z,2.89
2022-11-29T19:18:02.108Z,2.88
2022-11-29T19:21:07.772Z,2.95
2022-11-29T19:24:14.743Z,2.89
2022-11-29T19:27:16.924Z,3.02
2022-11-29T19:30:19.477Z,2.98
2022-11-29T19:33:21.447Z,3.04
2022-11-29T19:36:25.328Z,2.94
2022-11-29T19:39:28.527Z,2.88
2022-11-29T19:42:30.767Z,2.83
2022-11-29T19:45:32.772Z,2.75
2022-11-29T19:48:35.028Z,2.74
2022-11-29T19:51:37.169Z,2.96
2022-11-29T19:54:39.352Z,2.99
2022-11-29T19:57:41.270Z,2.85
2022-11-29T20:00:43.473Z,2.84
2022-11-29T20:03:45.922Z,2.98
2022-11-29T20:06:47.964Z,2.97
2022-11-29T20:09:50.166Z,2.76
2022-11-29T20:12:52.032Z,2.88
2022-11-29T20:15:54.275Z,2.99
2022-11-29T20:18:56.592Z,2.83
2022-11-29T20:21:58.799Z,2.95
2022-11-29T20:25:00.687Z,2.88
2022-11-29T20:28:04.089Z,2.94
2022-11-29T20:31:06.575Z,3.07
2022-11-29T20:34:12.677Z,2.99
2022-11-29T20:37:30.196Z,2.99
2022-11-29T20:40:40.208Z,2.83
2022-11-29T20:43:47.707Z,2.92
2022-11-29T20:46:50.075Z,2.89
2022-11-29T20:49:52.164Z,2.94
2022-11-29T20:53:09.650Z,2.91
2022-11-29T20:56:12.236Z,2.94
2022-11-29T20:59:14.469Z,2.84
2022-11-29T21:02:16.481Z,3.06
2022-11-29T21:05:18.738Z,2.81
2022-11-29T21:08:22.056Z,2.97
2022-11-29T21:11:25.269Z,2.91
2022-11-29T21:14:27.219Z,2.96
2022-11-29T21:17:33.521Z,2.98
2022-11-29T21:20:35.975Z,3.00
2022-11-29T21:23:44.055Z,3.13
2022-11-29T21:26:54.808Z,3.08
2022-11-29T21:29:57.144Z,2.91
2022-11-29T21:32:59.233Z,3.19
2022-11-29T21:36:01.668Z,3.09
2022-11-29T21:39:07.040Z,3.11
2022-11-29T21:42:09.243Z,3.26
2022-11-29T21:45:15.356Z,3.23
2022-11-29T21:48:37.642Z,3.26
2022-11-29T21:51:39.693Z,3.19
2022-11-29T21:54:42.009Z,3.21
2022-11-29T21:57:43.869Z,3.30
2022-11-29T22:00:46.065Z,3.34
2022-11-29T22:03:48.242Z,3.38
2022-11-29T22:06:50.864Z,3.24
2022-11-29T22:09:53.057Z,3.43
2022-11-29T22:12:54.968Z,3.28
2022-11-29T22:16:04.106Z,3.18
2022-11-29T22:19:06.061Z,3.16
2022-11-29T22:22:10.807Z,3.31
2022-11-29T22:25:12.759Z,3.20
2022-11-29T22:28:14.940Z,3.27
2022-11-29T22:31:16.989Z,3.50
2022-11-29T22:34:19.603Z,3.40
2022-11-29T22:37:21.525Z,3.48
2022-11-29T22:40:23.691Z,3.55
2022-11-29T22:43:25.524Z,3.49
2022-11-29T22:46:28.159Z,3.35
2022-11-29T22:49:30.119Z,3.28
2022-11-29T22:52:32.282Z,3.39
2022-11-29T22:55:34.139Z,3.45
2022-11-29T22:58:36.361Z,3.45
2022-11-29T23:01:39.481Z,3.55
2022-11-29T23:04:43.447Z,3.43
2022-11-29T23:07:47.074Z,3.34
2022-11-29T23:10:56.856Z,3.43
2022-11-29T23:13:58.821Z,3.39
2022-11-29T23:17:01.017Z,3.58
2022-11-29T23:20:02.988Z,3.63
2022-11-29T23:23:05.289Z,3.46
2022-11-29T23:26:08.272Z,3.48
2022-11-29T23:29:11.948Z,3.43
2022-11-29T23:32:13.934Z,3.60
2022-11-29T23:35:16.257Z,3.65
2022-11-29T23:38:18.317Z,3.66
2022-11-29T23:41:20.521Z,3.58
2022-11-29T23:44:22.384Z,3.58
2022-11-29T23:47:24.522Z,3.49
2022-11-29T23:50:26.384Z,3.69
2022-11-29T23:53:28.508Z,3.71
2022-11-29T23:56:35.062Z,3.68
2022-11-29T23:59:37.182Z,3.62
